sensor_id;sensor_type;location;lat;lon;timestamp;P1;durP1;ratioP1;P2;durP2;ratioP2
33254;SDS011;19623;52.482;9.762;2022-09-27T00:01:12;43.80;;;40.88;;
33254;SDS011;19623;52.482;9.762;2022-09-27T00:03:39;53.63;;;50.28;;
33254;SDS011;19623;52.482;9.762;2022-09-27T00:06:06;40.10;;;37.42;;
33254;SDS011;19623;52.482;9.762;2022-09-27T00:08:39;42.95;;;40.33;;
33254;SDS011;19623;52.482;9.762;2022-09-27T00:11:27;42.95;;;40.20;;
33254;SDS011;19623;52.482;9.762;2022-09-27T00:13:54;43.15;;;40.30;;
33254;SDS011;19623;52.482;9.762;2022-09-27T00:16:21;41.63;;;38.95;;
33254;SDS011;19623;52.482;9.762;2022-09-27T00:18:49;49.22;;;46.08;;
33254;SDS011;19623;52.482;9.762;2022-09-27T00:21:14;59.78;;;55.90;;
33254;SDS011;19623;52.482;9.762;2022-09-27T00:23:40;45.28;;;42.13;;
33254;SDS011;19623;52.482;9.762;2022-09-27T00:26:07;51.63;;;48.30;;
33254;SDS011;19623;52.482;9.762;2022-09-27T00:28:34;48.45;;;45.33;;
33254;SDS011;19623;52.482;9.762;2022-09-27T00:31:00;64.05;;;59.88;;
33254;SDS011;19623;52.482;9.762;2022-09-27T00:33:26;66.05;;;61.85;;
33254;SDS011;19623;52.482;9.762;2022-09-27T00:35:51;55.58;;;52.03;;
33254;SDS011;19623;52.482;9.762;2022-09-27T00:38:17;59.92;;;56.13;;
33254;SDS011;19623;52.482;9.762;2022-09-27T00:40:43;53.90;;;50.53;;
33254;SDS011;19623;52.482;9.762;2022-09-27T00:43:14;53.83;;;50.47;;
33254;SDS011;19623;52.482;9.762;2022-09-27T00:45:53;83.60;;;78.10;;
33254;SDS011;19623;52.482;9.762;2022-09-27T00:48:23;70.90;;;66.38;;
33254;SDS011;19623;52.482;9.762;2022-09-27T00:50:52;88.65;;;82.68;;
33254;SDS011;19623;52.482;9.762;2022-09-27T00:53:36;42.47;;;40.03;;
33254;SDS011;19623;52.482;9.762;2022-09-27T00:56:12;49.60;;;46.55;;
33254;SDS011;19623;52.482;9.762;2022-09-27T00:58:44;43.65;;;40.92;;
33254;SDS011;19623;52.482;9.762;2022-09-27T01:01:14;46.85;;;43.95;;
33254;SDS011;19623;52.482;9.762;2022-09-27T01:04:00;47.35;;;44.33;;
33254;SDS011;19623;52.482;9.762;2022-09-27T01:06:28;45.50;;;42.67;;
33254;SDS011;19623;52.482;9.762;2022-09-27T01:08:53;47.75;;;44.83;;
33254;SDS011;19623;52.482;9.762;2022-09-27T01:17:01;46.90;;;43.72;;
33254;SDS011;19623;52.482;9.762;2022-09-27T01:22:28;44.80;;;42.03;;
33254;SDS011;19623;52.482;9.762;2022-09-27T01:30:44;49.70;;;46.47;;
33254;SDS011;19623;52.482;9.762;2022-09-27T01:33:31;51.50;;;48.03;;
33254;SDS011;19623;52.482;9.762;2022-09-27T01:41:44;51.05;;;47.80;;
33254;SDS011;19623;52.482;9.762;2022-09-27T01:46:52;47.85;;;44.80;;
33254;SDS011;19623;52.482;9.762;2022-09-27T01:49:24;43.87;;;41.33;;
33254;SDS011;19623;52.482;9.762;2022-09-27T01:52:05;55.50;;;52.05;;
33254;SDS011;19623;52.482;9.762;2022-09-27T01:54:36;54.90;;;51.30;;
33254;SDS011;19623;52.482;9.762;2022-09-27T01:57:07;43.03;;;40.05;;
33254;SDS011;19623;52.482;9.762;2022-09-27T01:59:37;59.47;;;55.65;;
33254;SDS011;19623;52.482;9.762;2022-09-27T02:02:08;46.08;;;43.00;;
33254;SDS011;19623;52.482;9.762;2022-09-27T02:04:36;64.80;;;60.47;;
33254;SDS011;19623;52.482;9.762;2022-09-27T02:07:07;68.45;;;63.90;;
33254;SDS011;19623;52.482;9.762;2022-09-27T02:09:58;42.30;;;39.75;;
33254;SDS011;19623;52.482;9.762;2022-09-27T02:12:43;49.25;;;46.10;;
33254;SDS011;19623;52.482;9.762;2022-09-27T02:15:15;51.95;;;48.60;;
33254;SDS011;19623;52.482;9.762;2022-09-27T02:17:54;61.25;;;57.30;;
33254;SDS011;19623;52.482;9.762;2022-09-27T02:23:15;63.05;;;59.03;;
33254;SDS011;19623;52.482;9.762;2022-09-27T02:26:11;47.10;;;44.27;;
33254;SDS011;19623;52.482;9.762;2022-09-27T02:28:48;51.70;;;48.17;;
33254;SDS011;19623;52.482;9.762;2022-09-27T02:31:20;65.70;;;61.40;;
33254;SDS011;19623;52.482;9.762;2022-09-27T02:33:48;78.80;;;73.72;;
33254;SDS011;19623;52.482;9.762;2022-09-27T02:36:18;64.00;;;59.90;;
33254;SDS011;19623;52.482;9.762;2022-09-27T02:38:45;54.63;;;51.20;;
33254;SDS011;19623;52.482;9.762;2022-09-27T02:41:12;59.33;;;55.42;;
33254;SDS011;19623;52.482;9.762;2022-09-27T02:43:39;79.65;;;74.32;;
33254;SDS011;19623;52.482;9.762;2022-09-27T02:49:27;98.72;;;92.07;;
33254;SDS011;19623;52.482;9.762;2022-09-27T02:54:59;108.90;;;101.30;;
33254;SDS011;19623;52.482;9.762;2022-09-27T03:00:24;50.92;;;47.30;;
33254;SDS011;19623;52.482;9.762;2022-09-27T03:03:12;55.45;;;51.95;;
33254;SDS011;19623;52.482;9.762;2022-09-27T03:05:44;67.03;;;62.88;;
33254;SDS011;19623;52.482;9.762;2022-09-27T03:08:14;67.05;;;62.78;;
33254;SDS011;19623;52.482;9.762;2022-09-27T03:10:40;59.05;;;55.08;;
33254;SDS011;19623;52.482;9.762;2022-09-27T03:13:06;64.93;;;60.72;;
33254;SDS011;19623;52.482;9.762;2022-09-27T03:15:32;61.42;;;57.58;;
33254;SDS011;19623;52.482;9.762;2022-09-27T03:17:58;57.17;;;53.53;;
33254;SDS011;19623;52.482;9.762;2022-09-27T03:20:24;62.45;;;58.47;;
33254;SDS011;19623;52.482;9.762;2022-09-27T03:22:49;59.33;;;55.47;;
33254;SDS011;19623;52.482;9.762;2022-09-27T03:25:15;59.58;;;55.60;;
33254;SDS011;19623;52.482;9.762;2022-09-27T03:27:42;66.53;;;62.28;;
33254;SDS011;19623;52.482;9.762;2022-09-27T03:30:08;63.85;;;59.75;;
33254;SDS011;19623;52.482;9.762;2022-09-27T03:32:36;57.05;;;53.22;;
33254;SDS011;19623;52.482;9.762;2022-09-27T03:35:01;63.92;;;59.75;;
33254;SDS011;19623;52.482;9.762;2022-09-27T03:37:27;55.92;;;52.17;;
33254;SDS011;19623;52.482;9.762;2022-09-27T03:39:53;64.47;;;60.15;;
33254;SDS011;19623;52.482;9.762;2022-09-27T03:42:19;63.00;;;58.70;;
33254;SDS011;19623;52.482;9.762;2022-09-27T03:44:45;51.92;;;48.13;;
33254;SDS011;19623;52.482;9.762;2022-09-27T03:47:11;74.35;;;69.35;;
33254;SDS011;19623;52.482;9.762;2022-09-27T03:49:36;68.18;;;63.35;;
33254;SDS011;19623;52.482;9.762;2022-09-27T03:52:02;60.58;;;56.20;;
33254;SDS011;19623;52.482;9.762;2022-09-27T03:54:28;60.42;;;56.13;;
33254;SDS011;19623;52.482;9.762;2022-09-27T03:56:53;59.08;;;54.92;;
33254;SDS011;19623;52.482;9.762;2022-09-27T03:59:19;54.75;;;50.55;;
33254;SDS011;19623;52.482;9.762;2022-09-27T04:01:45;64.88;;;60.30;;
33254;SDS011;19623;52.482;9.762;2022-09-27T04:04:10;60.28;;;56.10;;
33254;SDS011;19623;52.482;9.762;2022-09-27T04:06:36;67.22;;;62.38;;
33254;SDS011;19623;52.482;9.762;2022-09-27T04:09:02;65.40;;;60.75;;
33254;SDS011;19623;52.482;9.762;2022-09-27T04:11:28;63.55;;;59.00;;
33254;SDS011;19623;52.482;9.762;2022-09-27T04:13:54;67.68;;;63.03;;
33254;SDS011;19623;52.482;9.762;2022-09-27T04:16:20;79.03;;;73.72;;
33254;SDS011;19623;52.482;9.762;2022-09-27T04:18:46;77.40;;;71.93;;
33254;SDS011;19623;52.482;9.762;2022-09-27T04:21:11;112.97;;;105.05;;
33254;SDS011;19623;52.482;9.762;2022-09-27T04:23:37;118.07;;;109.78;;
33254;SDS011;19623;52.482;9.762;2022-09-27T04:26:03;130.55;;;121.43;;
33254;SDS011;19623;52.482;9.762;2022-09-27T04:28:29;124.20;;;115.22;;
33254;SDS011;19623;52.482;9.762;2022-09-27T04:30:56;144.88;;;133.85;;
33254;SDS011;19623;52.482;9.762;2022-09-27T04:33:22;177.93;;;164.25;;
33254;SDS011;19623;52.482;9.762;2022-09-27T04:35:48;137.45;;;127.53;;
33254;SDS011;19623;52.482;9.762;2022-09-27T04:38:32;139.63;;;129.50;;
33254;SDS011;19623;52.482;9.762;2022-09-27T04:40:58;175.10;;;161.75;;
33254;SDS011;19623;52.482;9.762;2022-09-27T04:43:25;162.65;;;150.63;;
33254;SDS011;19623;52.482;9.762;2022-09-27T04:45:52;153.52;;;142.13;;
33254;SDS011;19623;52.482;9.762;2022-09-27T04:48:18;86.30;;;79.72;;
33254;SDS011;19623;52.482;9.762;2022-09-27T04:50:43;99.65;;;92.45;;
33254;SDS011;19623;52.482;9.762;2022-09-27T04:53:12;75.70;;;70.07;;
33254;SDS011;19623;52.482;9.762;2022-09-27T04:55:39;61.50;;;57.33;;
33254;SDS011;19623;52.482;9.762;2022-09-27T04:58:08;76.10;;;70.20;;
33254;SDS011;19623;52.482;9.762;2022-09-27T05:00:34;62.50;;;58.00;;
33254;SDS011;19623;52.482;9.762;2022-09-27T05:03:00;55.70;;;51.97;;
33254;SDS011;19623;52.482;9.762;2022-09-27T05:05:25;66.75;;;61.90;;
33254;SDS011;19623;52.482;9.762;2022-09-27T05:07:51;59.78;;;55.30;;
33254;SDS011;19623;52.482;9.762;2022-09-27T05:10:17;63.75;;;59.15;;
33254;SDS011;19623;52.482;9.762;2022-09-27T05:12:43;60.30;;;55.85;;
33254;SDS011;19623;52.482;9.762;2022-09-27T05:15:08;65.07;;;60.35;;
33254;SDS011;19623;52.482;9.762;2022-09-27T05:17:34;69.53;;;64.55;;
33254;SDS011;19623;52.482;9.762;2022-09-27T05:20:01;71.15;;;66.07;;
33254;SDS011;19623;52.482;9.762;2022-09-27T05:22:30;71.90;;;66.65;;
33254;SDS011;19623;52.482;9.762;2022-09-27T05:24:55;77.95;;;72.22;;
33254;SDS011;19623;52.482;9.762;2022-09-27T05:27:21;80.97;;;75.07;;
33254;SDS011;19623;52.482;9.762;2022-09-27T05:29:47;70.50;;;65.50;;
33254;SDS011;19623;52.482;9.762;2022-09-27T05:32:13;64.82;;;59.95;;
33254;SDS011;19623;52.482;9.762;2022-09-27T05:34:39;71.75;;;66.43;;
33254;SDS011;19623;52.482;9.762;2022-09-27T05:37:05;62.40;;;57.70;;
33254;SDS011;19623;52.482;9.762;2022-09-27T05:39:31;59.00;;;54.95;;
33254;SDS011;19623;52.482;9.762;2022-09-27T05:41:57;55.75;;;51.65;;
33254;SDS011;19623;52.482;9.762;2022-09-27T05:44:23;61.45;;;56.90;;
33254;SDS011;19623;52.482;9.762;2022-09-27T05:46:50;50.92;;;47.13;;
33254;SDS011;19623;52.482;9.762;2022-09-27T05:49:16;59.45;;;55.05;;
33254;SDS011;19623;52.482;9.762;2022-09-27T05:51:42;60.22;;;56.03;;
33254;SDS011;19623;52.482;9.762;2022-09-27T05:54:08;57.60;;;53.58;;
33254;SDS011;19623;52.482;9.762;2022-09-27T05:56:33;51.88;;;48.35;;
33254;SDS011;19623;52.482;9.762;2022-09-27T05:58:59;60.63;;;56.03;;
33254;SDS011;19623;52.482;9.762;2022-09-27T06:01:25;48.70;;;45.08;;
33254;SDS011;19623;52.482;9.762;2022-09-27T06:03:51;60.05;;;56.08;;
33254;SDS011;19623;52.482;9.762;2022-09-27T06:06:18;64.88;;;60.20;;
33254;SDS011;19623;52.482;9.762;2022-09-27T06:08:43;57.05;;;52.92;;
33254;SDS011;19623;52.482;9.762;2022-09-27T06:11:10;56.50;;;52.50;;
33254;SDS011;19623;52.482;9.762;2022-09-27T06:13:36;65.65;;;61.15;;
33254;SDS011;19623;52.482;9.762;2022-09-27T06:16:07;86.05;;;79.93;;
33254;SDS011;19623;52.482;9.762;2022-09-27T06:18:34;69.55;;;64.72;;
33254;SDS011;19623;52.482;9.762;2022-09-27T06:21:02;105.25;;;97.82;;
33254;SDS011;19623;52.482;9.762;2022-09-27T06:23:29;107.22;;;99.35;;
33254;SDS011;19623;52.482;9.762;2022-09-27T06:26:01;121.53;;;112.80;;
33254;SDS011;19623;52.482;9.762;2022-09-27T06:28:29;107.93;;;99.78;;
33254;SDS011;19623;52.482;9.762;2022-09-27T06:30:56;123.25;;;114.20;;
33254;SDS011;19623;52.482;9.762;2022-09-27T06:33:24;133.00;;;122.80;;
33254;SDS011;19623;52.482;9.762;2022-09-27T06:35:52;113.85;;;105.55;;
33254;SDS011;19623;52.482;9.762;2022-09-27T06:38:17;136.32;;;126.45;;
33254;SDS011;19623;52.482;9.762;2022-09-27T06:40:45;137.98;;;127.95;;
33254;SDS011;19623;52.482;9.762;2022-09-27T06:43:12;141.23;;;130.57;;
33254;SDS011;19623;52.482;9.762;2022-09-27T06:45:39;61.00;;;56.72;;
33254;SDS011;19623;52.482;9.762;2022-09-27T06:48:07;64.45;;;60.10;;
33254;SDS011;19623;52.482;9.762;2022-09-27T06:50:35;58.63;;;54.65;;
33254;SDS011;19623;52.482;9.762;2022-09-27T06:53:03;60.17;;;56.08;;
33254;SDS011;19623;52.482;9.762;2022-09-27T06:55:30;69.97;;;64.97;;
33254;SDS011;19623;52.482;9.762;2022-09-27T06:57:56;111.40;;;102.97;;
33254;SDS011;19623;52.482;9.762;2022-09-27T07:00:42;103.18;;;95.45;;
33254;SDS011;19623;52.482;9.762;2022-09-27T07:03:10;79.72;;;74.00;;
33254;SDS011;19623;52.482;9.762;2022-09-27T07:05:37;126.82;;;117.00;;
33254;SDS011;19623;52.482;9.762;2022-09-27T07:08:05;129.57;;;120.05;;
33254;SDS011;19623;52.482;9.762;2022-09-27T07:10:33;157.35;;;145.23;;
33254;SDS011;19623;52.482;9.762;2022-09-27T07:13:08;159.23;;;147.00;;
33254;SDS011;19623;52.482;9.762;2022-09-27T07:15:35;167.30;;;153.90;;
33254;SDS011;19623;52.482;9.762;2022-09-27T07:18:03;164.43;;;151.57;;
33254;SDS011;19623;52.482;9.762;2022-09-27T07:20:30;172.73;;;158.63;;
33254;SDS011;19623;52.482;9.762;2022-09-27T07:22:56;186.95;;;171.18;;
33254;SDS011;19623;52.482;9.762;2022-09-27T07:25:23;166.63;;;153.77;;
33254;SDS011;19623;52.482;9.762;2022-09-27T07:27:50;178.85;;;164.35;;
33254;SDS011;19623;52.482;9.762;2022-09-27T07:30:19;58.85;;;54.53;;
33254;SDS011;19623;52.482;9.762;2022-09-27T07:32:46;46.80;;;43.33;;
33254;SDS011;19623;52.482;9.762;2022-09-27T07:35:16;50.25;;;46.97;;
33254;SDS011;19623;52.482;9.762;2022-09-27T07:37:42;54.58;;;51.03;;
33254;SDS011;19623;52.482;9.762;2022-09-27T07:40:09;57.22;;;53.15;;
33254;SDS011;19623;52.482;9.762;2022-09-27T07:42:35;54.13;;;50.47;;
33254;SDS011;19623;52.482;9.762;2022-09-27T07:45:05;49.75;;;46.33;;
33254;SDS011;19623;52.482;9.762;2022-09-27T07:47:32;49.20;;;45.75;;
33254;SDS011;19623;52.482;9.762;2022-09-27T07:50:01;43.08;;;40.05;;
33254;SDS011;19623;52.482;9.762;2022-09-27T07:52:29;50.33;;;46.85;;
33254;SDS011;19623;52.482;9.762;2022-09-27T07:54:54;46.40;;;42.97;;
33254;SDS011;19623;52.482;9.762;2022-09-27T07:57:21;52.40;;;48.72;;
33254;SDS011;19623;52.482;9.762;2022-09-27T07:59:46;43.58;;;40.30;;
33254;SDS011;19623;52.482;9.762;2022-09-27T08:02:12;54.28;;;50.45;;
33254;SDS011;19623;52.482;9.762;2022-09-27T08:04:40;48.38;;;45.08;;
33254;SDS011;19623;52.482;9.762;2022-09-27T08:07:11;46.67;;;43.53;;
33254;SDS011;19623;52.482;9.762;2022-09-27T08:09:37;50.15;;;46.15;;
33254;SDS011;19623;52.482;9.762;2022-09-27T08:12:02;42.95;;;39.65;;
33254;SDS011;19623;52.482;9.762;2022-09-27T08:14:29;47.50;;;44.10;;
33254;SDS011;19623;52.482;9.762;2022-09-27T08:16:55;50.67;;;47.45;;
33254;SDS011;19623;52.482;9.762;2022-09-27T08:19:21;62.25;;;58.13;;
33254;SDS011;19623;52.482;9.762;2022-09-27T08:21:46;52.50;;;48.85;;
33254;SDS011;19623;52.482;9.762;2022-09-27T08:24:13;58.97;;;54.88;;
33254;SDS011;19623;52.482;9.762;2022-09-27T08:26:38;53.75;;;50.22;;
33254;SDS011;19623;52.482;9.762;2022-09-27T08:29:05;53.67;;;50.15;;
33254;SDS011;19623;52.482;9.762;2022-09-27T08:31:30;62.35;;;58.03;;
33254;SDS011;19623;52.482;9.762;2022-09-27T08:33:56;59.17;;;54.75;;
33254;SDS011;19623;52.482;9.762;2022-09-27T08:36:22;60.45;;;56.42;;
33254;SDS011;19623;52.482;9.762;2022-09-27T08:38:50;65.60;;;60.90;;
33254;SDS011;19623;52.482;9.762;2022-09-27T08:41:35;77.63;;;72.18;;
33254;SDS011;19623;52.482;9.762;2022-09-27T08:44:37;84.20;;;78.13;;
33254;SDS011;19623;52.482;9.762;2022-09-27T08:47:13;75.82;;;70.43;;
33254;SDS011;19623;52.482;9.762;2022-09-27T08:50:02;59.25;;;55.33;;
33254;SDS011;19623;52.482;9.762;2022-09-27T08:52:32;58.13;;;54.30;;
33254;SDS011;19623;52.482;9.762;2022-09-27T08:55:18;82.05;;;76.30;;
33254;SDS011;19623;52.482;9.762;2022-09-27T08:57:47;46.95;;;43.67;;
33254;SDS011;19623;52.482;9.762;2022-09-27T09:00:17;48.63;;;45.40;;
33254;SDS011;19623;52.482;9.762;2022-09-27T09:02:43;42.20;;;39.55;;
33254;SDS011;19623;52.482;9.762;2022-09-27T09:05:18;46.65;;;43.53;;
33254;SDS011;19623;52.482;9.762;2022-09-27T09:11:11;51.80;;;47.75;;
33254;SDS011;19623;52.482;9.762;2022-09-27T09:35:28;43.67;;;40.63;;
33254;SDS011;19623;52.482;9.762;2022-09-27T09:38:02;46.30;;;43.10;;
33254;SDS011;19623;52.482;9.762;2022-09-27T09:40:37;51.63;;;48.47;;
33254;SDS011;19623;52.482;9.762;2022-09-27T09:43:12;44.63;;;41.85;;
33254;SDS011;19623;52.482;9.762;2022-09-27T09:45:48;53.63;;;49.63;;
33254;SDS011;19623;52.482;9.762;2022-09-27T09:48:38;54.75;;;51.13;;
33254;SDS011;19623;52.482;9.762;2022-09-27T09:51:33;59.63;;;55.67;;
33254;SDS011;19623;52.482;9.762;2022-09-27T09:54:14;57.63;;;54.00;;
33254;SDS011;19623;52.482;9.762;2022-09-27T10:05:15;51.65;;;48.42;;
33254;SDS011;19623;52.482;9.762;2022-09-27T10:07:44;43.00;;;40.28;;
33254;SDS011;19623;52.482;9.762;2022-09-27T10:10:20;44.95;;;41.95;;
33254;SDS011;19623;52.482;9.762;2022-09-27T10:12:49;49.80;;;46.67;;
33254;SDS011;19623;52.482;9.762;2022-09-27T10:15:19;44.75;;;42.00;;
33254;SDS011;19623;52.482;9.762;2022-09-27T10:17:56;33.45;;;31.45;;
33254;SDS011;19623;52.482;9.762;2022-09-27T10:26:16;80.20;;;74.80;;
33254;SDS011;19623;52.482;9.762;2022-09-27T10:28:43;45.75;;;43.08;;
33254;SDS011;19623;52.482;9.762;2022-09-27T10:31:13;49.05;;;45.80;;
33254;SDS011;19623;52.482;9.762;2022-09-27T10:36:33;44.53;;;41.72;;
33254;SDS011;19623;52.482;9.762;2022-09-27T10:39:00;41.47;;;38.35;;
33254;SDS011;19623;52.482;9.762;2022-09-27T10:41:37;39.40;;;36.70;;
33254;SDS011;19623;52.482;9.762;2022-09-27T10:46:54;43.25;;;40.58;;
33254;SDS011;19623;52.482;9.762;2022-09-27T10:49:33;49.58;;;46.58;;
33254;SDS011;19623;52.482;9.762;2022-09-27T10:52:02;45.33;;;42.58;;
33254;SDS011;19623;52.482;9.762;2022-09-27T10:54:36;50.50;;;47.17;;
33254;SDS011;19623;52.482;9.762;2022-09-27T10:57:09;43.85;;;40.97;;
33254;SDS011;19623;52.482;9.762;2022-09-27T10:59:46;41.28;;;38.30;;
33254;SDS011;19623;52.482;9.762;2022-09-27T11:07:50;43.50;;;40.47;;
33254;SDS011;19623;52.482;9.762;2022-09-27T11:10:32;44.85;;;42.20;;
33254;SDS011;19623;52.482;9.762;2022-09-27T11:15:34;46.03;;;43.28;;
33254;SDS011;19623;52.482;9.762;2022-09-27T11:18:28;45.42;;;42.58;;
33254;SDS011;19623;52.482;9.762;2022-09-27T11:21:02;57.88;;;54.17;;
33254;SDS011;19623;52.482;9.762;2022-09-27T11:46:11;41.78;;;39.17;;
33254;SDS011;19623;52.482;9.762;2022-09-27T11:51:29;51.15;;;47.95;;
33254;SDS011;19623;52.482;9.762;2022-09-27T12:04:56;55.10;;;51.65;;
33254;SDS011;19623;52.482;9.762;2022-09-27T12:10:22;32.88;;;30.73;;
33254;SDS011;19623;52.482;9.762;2022-09-27T12:12:53;65.05;;;60.85;;
33254;SDS011;19623;52.482;9.762;2022-09-27T12:15:23;79.05;;;73.95;;
33254;SDS011;19623;52.482;9.762;2022-09-27T12:17:58;66.80;;;62.53;;
33254;SDS011;19623;52.482;9.762;2022-09-27T12:20:41;53.00;;;49.67;;
33254;SDS011;19623;52.482;9.762;2022-09-27T12:23:14;41.50;;;38.80;;
33254;SDS011;19623;52.482;9.762;2022-09-27T12:25:46;51.22;;;47.80;;
33254;SDS011;19623;52.482;9.762;2022-09-27T12:28:19;54.78;;;51.25;;
33254;SDS011;19623;52.482;9.762;2022-09-27T12:36:45;59.95;;;56.15;;
33254;SDS011;19623;52.482;9.762;2022-09-27T12:42:41;49.63;;;46.28;;
33254;SDS011;19623;52.482;9.762;2022-09-27T12:45:25;55.15;;;51.35;;
33254;SDS011;19623;52.482;9.762;2022-09-27T12:50:38;55.67;;;52.03;;
33254;SDS011;19623;52.482;9.762;2022-09-27T12:53:30;55.08;;;51.58;;
33254;SDS011;19623;52.482;9.762;2022-09-27T12:59:17;53.63;;;50.17;;
33254;SDS011;19623;52.482;9.762;2022-09-27T13:08:25;51.35;;;47.85;;
33254;SDS011;19623;52.482;9.762;2022-09-27T13:14:22;50.17;;;46.92;;
33254;SDS011;19623;52.482;9.762;2022-09-27T13:16:51;53.95;;;50.53;;
33254;SDS011;19623;52.482;9.762;2022-09-27T13:24:51;54.03;;;50.78;;
33254;SDS011;19623;52.482;9.762;2022-09-27T13:29:52;55.25;;;51.88;;
33254;SDS011;19623;52.482;9.762;2022-09-27T13:32:40;55.28;;;51.80;;
33254;SDS011;19623;52.482;9.762;2022-09-27T13:35:37;52.95;;;49.70;;
33254;SDS011;19623;52.482;9.762;2022-09-27T13:38:03;47.63;;;44.70;;
33254;SDS011;19623;52.482;9.762;2022-09-27T13:49:11;53.58;;;50.05;;
33254;SDS011;19623;52.482;9.762;2022-09-27T13:51:39;47.10;;;44.30;;
33254;SDS011;19623;52.482;9.762;2022-09-27T13:57:37;78.68;;;73.60;;
33254;SDS011;19623;52.482;9.762;2022-09-27T14:00:19;62.22;;;58.22;;
33254;SDS011;19623;52.482;9.762;2022-09-27T14:03:05;58.30;;;54.63;;
33254;SDS011;19623;52.482;9.762;2022-09-27T14:05:56;64.55;;;60.40;;
33254;SDS011;19623;52.482;9.762;2022-09-27T14:11:14;73.57;;;69.07;;
33254;SDS011;19623;52.482;9.762;2022-09-27T14:13:47;91.82;;;85.95;;
33254;SDS011;19623;52.482;9.762;2022-09-27T14:16:15;85.35;;;79.82;;
33254;SDS011;19623;52.482;9.762;2022-09-27T14:18:44;100.68;;;94.13;;
33254;SDS011;19623;52.482;9.762;2022-09-27T14:21:30;105.95;;;98.97;;
33254;SDS011;19623;52.482;9.762;2022-09-27T14:27:11;120.32;;;112.10;;
33254;SDS011;19623;52.482;9.762;2022-09-27T14:32:27;69.40;;;64.68;;
33254;SDS011;19623;52.482;9.762;2022-09-27T14:37:28;58.47;;;54.85;;
33254;SDS011;19623;52.482;9.762;2022-09-27T14:39:58;74.13;;;69.22;;
33254;SDS011;19623;52.482;9.762;2022-09-27T14:42:30;102.80;;;96.22;;
33254;SDS011;19623;52.482;9.762;2022-09-27T14:45:02;57.80;;;54.47;;
33254;SDS011;19623;52.482;9.762;2022-09-27T14:50:53;127.07;;;118.35;;
33254;SDS011;19623;52.482;9.762;2022-09-27T14:53:32;140.63;;;131.02;;
33254;SDS011;19623;52.482;9.762;2022-09-27T14:56:23;162.75;;;151.25;;
33254;SDS011;19623;52.482;9.762;2022-09-27T14:58:55;116.82;;;109.13;;
33254;SDS011;19623;52.482;9.762;2022-09-27T15:01:27;144.73;;;134.68;;
33254;SDS011;19623;52.482;9.762;2022-09-27T15:03:55;83.75;;;78.43;;
33254;SDS011;19623;52.482;9.762;2022-09-27T15:06:26;67.63;;;63.42;;
33254;SDS011;19623;52.482;9.762;2022-09-27T15:08:52;75.88;;;70.90;;
33254;SDS011;19623;52.482;9.762;2022-09-27T15:11:19;77.35;;;72.22;;
33254;SDS011;19623;52.482;9.762;2022-09-27T15:13:45;65.20;;;60.90;;
33254;SDS011;19623;52.482;9.762;2022-09-27T15:16:15;64.93;;;60.72;;
33254;SDS011;19623;52.482;9.762;2022-09-27T15:18:44;75.78;;;70.65;;
33254;SDS011;19623;52.482;9.762;2022-09-27T15:21:13;80.57;;;75.15;;
33254;SDS011;19623;52.482;9.762;2022-09-27T15:23:51;82.25;;;76.80;;
33254;SDS011;19623;52.482;9.762;2022-09-27T15:26:22;72.65;;;67.82;;
33254;SDS011;19623;52.482;9.762;2022-09-27T15:28:51;83.88;;;78.22;;
33254;SDS011;19623;52.482;9.762;2022-09-27T15:31:26;70.63;;;65.95;;
33254;SDS011;19623;52.482;9.762;2022-09-27T15:33:56;72.03;;;67.07;;
33254;SDS011;19623;52.482;9.762;2022-09-27T15:39:39;67.30;;;62.83;;
33254;SDS011;19623;52.482;9.762;2022-09-27T15:44:44;61.67;;;57.78;;
33254;SDS011;19623;52.482;9.762;2022-09-27T15:55:09;62.10;;;58.10;;
33254;SDS011;19623;52.482;9.762;2022-09-27T15:57:39;62.58;;;58.65;;
33254;SDS011;19623;52.482;9.762;2022-09-27T16:00:12;68.38;;;63.97;;
33254;SDS011;19623;52.482;9.762;2022-09-27T16:02:40;57.25;;;53.70;;
33254;SDS011;19623;52.482;9.762;2022-09-27T16:05:06;58.88;;;55.25;;
33254;SDS011;19623;52.482;9.762;2022-09-27T16:07:32;54.92;;;51.53;;
33254;SDS011;19623;52.482;9.762;2022-09-27T16:09:58;49.10;;;46.00;;
33254;SDS011;19623;52.482;9.762;2022-09-27T16:12:27;53.38;;;49.97;;
33254;SDS011;19623;52.482;9.762;2022-09-27T16:14:56;56.22;;;52.78;;
33254;SDS011;19623;52.482;9.762;2022-09-27T16:17:21;58.42;;;54.72;;
33254;SDS011;19623;52.482;9.762;2022-09-27T16:19:47;53.83;;;50.50;;
33254;SDS011;19623;52.482;9.762;2022-09-27T16:22:14;51.00;;;47.80;;
33254;SDS011;19623;52.482;9.762;2022-09-27T16:24:40;51.20;;;48.03;;
33254;SDS011;19623;52.482;9.762;2022-09-27T16:27:06;55.97;;;52.53;;
33254;SDS011;19623;52.482;9.762;2022-09-27T16:29:31;52.67;;;49.35;;
33254;SDS011;19623;52.482;9.762;2022-09-27T16:31:57;59.53;;;55.63;;
33254;SDS011;19623;52.482;9.762;2022-09-27T16:34:22;47.88;;;44.92;;
33254;SDS011;19623;52.482;9.762;2022-09-27T16:36:48;53.40;;;50.08;;
33254;SDS011;19623;52.482;9.762;2022-09-27T16:39:14;53.75;;;50.35;;
33254;SDS011;19623;52.482;9.762;2022-09-27T16:41:40;52.05;;;48.85;;
33254;SDS011;19623;52.482;9.762;2022-09-27T16:44:08;56.35;;;52.78;;
33254;SDS011;19623;52.482;9.762;2022-09-27T16:46:38;50.13;;;46.97;;
33254;SDS011;19623;52.482;9.762;2022-09-27T16:49:10;53.67;;;50.30;;
33254;SDS011;19623;52.482;9.762;2022-09-27T16:51:54;50.28;;;46.78;;
33254;SDS011;19623;52.482;9.762;2022-09-27T16:54:26;50.55;;;47.42;;
33254;SDS011;19623;52.482;9.762;2022-09-27T16:56:53;44.90;;;42.13;;
33254;SDS011;19623;52.482;9.762;2022-09-27T16:59:23;53.63;;;50.28;;
33254;SDS011;19623;52.482;9.762;2022-09-27T17:01:49;60.10;;;56.15;;
33254;SDS011;19623;52.482;9.762;2022-09-27T17:04:15;59.88;;;55.97;;
33254;SDS011;19623;52.482;9.762;2022-09-27T17:06:41;64.15;;;60.13;;
33254;SDS011;19623;52.482;9.762;2022-09-27T17:09:07;73.47;;;68.68;;
33254;SDS011;19623;52.482;9.762;2022-09-27T17:11:33;55.00;;;51.20;;
33254;SDS011;19623;52.482;9.762;2022-09-27T17:13:59;58.58;;;54.85;;
33254;SDS011;19623;52.482;9.762;2022-09-27T17:16:25;68.78;;;63.85;;
33254;SDS011;19623;52.482;9.762;2022-09-27T17:18:52;71.53;;;66.82;;
33254;SDS011;19623;52.482;9.762;2022-09-27T17:21:17;75.97;;;71.07;;
33254;SDS011;19623;52.482;9.762;2022-09-27T17:23:43;74.53;;;69.72;;
33254;SDS011;19623;52.482;9.762;2022-09-27T17:26:19;72.40;;;67.70;;
33254;SDS011;19623;52.482;9.762;2022-09-27T17:28:46;71.50;;;66.97;;
33254;SDS011;19623;52.482;9.762;2022-09-27T17:31:13;87.10;;;81.15;;
33254;SDS011;19623;52.482;9.762;2022-09-27T17:33:45;129.25;;;119.90;;
33254;SDS011;19623;52.482;9.762;2022-09-27T17:36:14;121.72;;;113.05;;
33254;SDS011;19623;52.482;9.762;2022-09-27T17:38:47;107.78;;;100.70;;
33254;SDS011;19623;52.482;9.762;2022-09-27T17:41:15;146.52;;;135.77;;
33254;SDS011;19623;52.482;9.762;2022-09-27T17:43:43;137.95;;;128.00;;
33254;SDS011;19623;52.482;9.762;2022-09-27T17:46:22;163.18;;;151.45;;
33254;SDS011;19623;52.482;9.762;2022-09-27T17:48:50;144.32;;;134.30;;
33254;SDS011;19623;52.482;9.762;2022-09-27T17:51:35;155.57;;;143.95;;
33254;SDS011;19623;52.482;9.762;2022-09-27T17:54:03;154.88;;;143.98;;
33254;SDS011;19623;52.482;9.762;2022-09-27T17:56:31;170.43;;;158.00;;